Trat Airport
VTBO : now visible

Airfield :











YOU CAN JOIN US ON...

 
LOGIN :

Register | Disclaimer

   EN    FR    IT 

 









Legend :    VFR   Marginal VFR   IFR   Intensive IFR   Very Intensive IFR
Visi :
Ceiling :
>= 8 km
>= 3000ft
5 to 8 km
1000 to 3000 ft
1500m to 5 km
500 to 1000 ft
800 to 1500m
200 to 500 ft
< 800m
< 200 ft
Symbols :   Thunderstorms  Fog  Heavy snow  Heavy precipitations  Wind > 20 kt






- Airport Elevation : 105 ft


VTBO - Trat

CURRENT METAR :
  • 270900Z 00000KT 9999 -RA FEW016 SCT018 OVC100 27/25 Q1005

EXPIRED METARs :
  • 270800Z 00000KT 9000 VCSH FEW005 FEW016CB SCT018 OVC100 26/25 Q1005
  • 270700Z 00000KT 7000 -RA FEW005 FEW016CB SCT018 BKN100 27/25 Q1006 RETS

TAF TAF VTBO
Valid from the 27 at 06:00 until the 28 at 06:00 UTC


270500Z 2706/2806 22008KT 9000 FEW020 BKN100
TEMPO 2706/2712 30010G25KT 4000 TSRA FEW018CB SCT035 BKN080
VTBB FIR / Asia



MET'MAP, your aeronautical weather chart ! - Copyright ORBIFLY December 2007 - Disclaimer

ORBIFLY MET'MAP TEAM :

Programming & Development : Alexandra Zaïnal
Original concept : Baudouin d'Aumeries
Technical & hardware support : Manuel Goepfert
Assistance : Marc-Olivier Méhu




SOURCES & CREDITS :

   NOAA       Earth
Advisory